• Join FlightAware (Why Join?)
  • Login
  • US Flag 
05:27AM EST


 

Airport Tracker/Info


-or-


 

Live Flight TrackerFlight Track Log ✈ JZA7939 ✈ 28-Sep-2013 ✈ CYYZ - KMKE

Flight Track Log - Related Links

Times and Time Zones

All times are in EDT time to prevent confusion due to time zone crossing. See the JZA7939 flight status page for this flight to view local times or setup timezone preferences in your user account.

Time Position Orientation Groundspeed Altitude Reporting Facility
EDT Latitude Longitude Course Direction KTS MPH feet Rate Location/Type
06:44PM 43.6667 -79.5667 103° East 170 196 1,500  Level Toronto Center
06:45PM 43.7167 -79.5167 36° Northeast 190 219 3,700 2,400 Climbing Toronto Center
06:46PM 43.7167 -79.4500 90° East 220 253 6,300 2,400 Climbing Toronto Center
06:47PM 43.6500 -79.3833 144° Southeast 260 299 8,500 2,220 Climbing Toronto Center
06:48PM 43.6000 -79.4500 224° Southwest 280 322 10,800 2,220 Climbing Toronto Center
06:49PM 43.6000 -79.5667 270° West 300 345 13,000 1,500 Climbing Toronto Center
06:50PM 43.6167 -79.6833 281° West 340 391 13,800 1,140 Climbing Toronto Center
06:51PM 43.6333 -79.8167 280° West 360 414 15,300 1,320 Climbing Toronto Center
06:52PM 43.6667 -79.9500 289° West 370 426 16,500 1,260 Climbing Toronto Center
06:53PM 43.6833 -80.1167 278° West 380 437 17,900 1,140 Climbing Toronto Center
06:54PM 43.7000 -80.2500 280° West 380 437 18,800 900 Climbing Toronto Center
06:55PM 43.7167 -80.4000 279° West 390 449 19,800 900 Climbing Toronto Center
06:56PM 43.7333 -80.5500 279° West 390 449 20,600 900 Climbing Toronto Center
06:57PM 43.7000 -80.7000 253° West 400 460 21,600 900 Climbing Toronto Center
06:58PM 43.6667 -80.8500 253° West 410 472 22,500 840 Climbing Toronto Center
06:59PM 43.6500 -81.0000 261° West 410 472 23,300 660 Climbing Toronto Center
07:00PM 43.6333 -81.1500 261° West 420 483 23,900 600 Climbing Toronto Center
07:01PM 43.6167 -81.3167 262° West 420 483 24,500 600 Climbing Toronto Center
07:02PM 43.6167 -81.5000 270° West 430 495 25,100 540 Climbing Toronto Center
07:03PM 43.6000 -81.6667 262° West 440 506 25,600 660 Climbing Toronto Center
07:04PM 43.5833 -81.8167 261° West 440 506 26,500 780 Climbing Toronto Center
07:05PM 43.5667 -81.9833 262° West 430 495 27,200 720 Climbing Toronto Center
07:06PM 43.5500 -82.1667 263° West 430 495 28,000 720 Climbing Toronto Center
07:07PM 43.5500 -82.3000 270° West 430 495 28,700 720 Climbing Toronto Center
07:08PM 43.5333 -82.4833 263° West 420 483 29,500 780 Climbing Toronto Center
07:09PM 43.5167 -82.6167 260° West 420 483 30,300 660 Climbing Toronto Center
07:10PM 43.5000 -82.7833 262° West 410 472 30,900 600 Climbing Toronto Center
07:11PM 43.4833 -82.9500 262° West 420 483 31,600 480 Climbing Toronto Center
07:11PM 43.4897 -83.0228 277° West 413 475 31,700 420 Climbing Cleveland Center
07:12PM 43.4750 -83.1794 263° West 414 476 32,300 600 Climbing Cleveland Center
07:13PM 43.4608 -83.3344 263° West 412 474 33,000 600 Climbing Cleveland Center
07:14PM 43.4461 -83.4878 263° West 407 468 33,600 480 Climbing Cleveland Center
07:15PM 43.4311 -83.6408 262° West 406 467 34,000 180 Climbing Cleveland Center
07:16PM 43.4158 -83.7958 262° West 410 472 34,000  Level Cleveland Center
07:17PM 43.3994 -83.9522 262° West 414 476 34,000  Level Cleveland Center
07:18PM 43.3833 -84.1186 262° West 417 480 34,000  Level Cleveland Center
07:19PM 43.3667 -84.2767 262° West 420 483 34,000  Level Cleveland Center
07:20PM 43.3539 -84.4031 262° West 417 480 34,000  Level Chicago Center
07:21PM 43.3369 -84.5594 262° West 416 479 34,000  Level Chicago Center
07:22PM 43.3194 -84.7161 261° West 417 480 34,000  Level Chicago Center
07:23PM 43.3028 -84.8706 262° West 412 474 34,000  Level Chicago Center
07:24PM 43.2850 -85.0228 261° West 408 470 34,000 -60 Level Chicago Center
07:25PM 43.2692 -85.1728 262° West 402 463 33,900 -540 Descending Chicago Center
07:26PM 43.2525 -85.3242 261° West 402 463 33,000 -960 Descending Chicago Center
07:27PM 43.2350 -85.4750 261° West 402 463 32,000 -900 Descending Chicago Center
07:28PM 43.2181 -85.6222 261° West 397 457 31,200 -1,140 Descending Chicago Center
07:29PM 43.1992 -85.7956 262° West 390 449 29,700 -1,680 Descending Chicago Center
07:30PM 43.1817 -85.9419 261° West 394 453 27,800 -1,860 Descending Chicago Center
07:31PM 43.1719 -86.0861 265° West 402 463 26,000 -1,860 Descending Chicago Center
07:32PM 43.1675 -86.2258 268° West 379 436 24,100 -1,920 Descending Chicago Center
07:33PM 43.1647 -86.3614 268° West 362 417 22,200 -2,040 Descending Chicago Center
07:34PM 43.1614 -86.5244 268° West 360 414 20,000 -1,920 Descending Chicago Center
07:35PM 43.1594 -86.6508 269° West 339 390 18,300 -1,620 Descending Chicago Center
07:36PM 43.1572 -86.7731 269° West 325 374 16,700 -1,560 Descending Chicago Center
07:37PM 43.1539 -86.8944 268° West 322 371 15,200 -1,500 Descending Chicago Center
07:38PM 43.1514 -87.0150 268° West 319 367 13,700 -1,440 Descending Chicago Center
07:39PM 43.1483 -87.1347 268° West 317 365 12,300 -1,620 Descending Chicago Center
07:40PM 43.1350 -87.2436 261° West 295 339 10,500 -1,740 Descending Chicago Center
07:41PM 43.1225 -87.3408 260° West 264 304 8,800 -1,860 Descending Chicago Center
07:42PM 43.1114 -87.4436 262° West 246 283 6,800 -1,680 Descending Chicago Center
07:43PM 43.1003 -87.5336 260° West 242 278 5,500 -1,140 Descending Chicago Center
07:44PM 43.0903 -87.6253 262° West 242 278 4,500 -1,020 Descending Chicago Center
07:45PM 43.0800 -87.7153 261° West 241 277 3,500 -900 Descending Chicago Center
07:46PM 43.0711 -87.7944 261° West 223 257 2,700 -420 Descending Chicago Center
07:47PM 43.0622 -87.8603 260° West 200 230 2,700 -420 Level Chicago Center
07:48PM 43.0147 -87.8822 199° South 169 194 1,900 -600 Descending Chicago Center
07:49PM 42.9800 -87.8878 187° South 159 183 1,600 -540 Descending Chicago Center
07:50PM 42.9406 -87.8978 191° South 149 171 800 -780 Descending Chicago Center